sensor_id;sensor_type;location;lat;lon;timestamp;pressure;altitude;pressure_sealevel;temperature;humidity
64141;BME280;50436;50.618;7.932;2024-01-07T00:01:49;96109.59;;;1.16;100.00
64141;BME280;50436;50.618;7.932;2024-01-07T00:04:36;96120.16;;;1.23;100.00
64141;BME280;50436;50.618;7.932;2024-01-07T00:07:22;96112.44;;;1.21;100.00
64141;BME280;50436;50.618;7.932;2024-01-07T00:10:08;96130.28;;;1.19;100.00
64141;BME280;50436;50.618;7.932;2024-01-07T00:12:55;96127.22;;;1.16;100.00
64141;BME280;50436;50.618;7.932;2024-01-07T00:15:41;96131.88;;;1.14;100.00
64141;BME280;50436;50.618;7.932;2024-01-07T00:18:27;96140.44;;;1.22;100.00
64141;BME280;50436;50.618;7.932;2024-01-07T00:21:13;96138.03;;;1.27;100.00
64141;BME280;50436;50.618;7.932;2024-01-07T00:23:58;96141.88;;;1.25;100.00
64141;BME280;50436;50.618;7.932;2024-01-07T00:26:44;96150.81;;;1.30;100.00
64141;BME280;50436;50.618;7.932;2024-01-07T00:29:31;96148.38;;;1.29;100.00
64141;BME280;50436;50.618;7.932;2024-01-07T00:32:17;96151.81;;;1.29;100.00
64141;BME280;50436;50.618;7.932;2024-01-07T00:35:03;96152.00;;;1.21;100.00
64141;BME280;50436;50.618;7.932;2024-01-07T00:37:49;96148.53;;;1.21;100.00
64141;BME280;50436;50.618;7.932;2024-01-07T00:40:35;96151.78;;;1.23;100.00
64141;BME280;50436;50.618;7.932;2024-01-07T00:43:21;96152.44;;;1.25;100.00
64141;BME280;50436;50.618;7.932;2024-01-07T00:46:07;96141.44;;;1.21;100.00
64141;BME280;50436;50.618;7.932;2024-01-07T00:48:52;96155.63;;;1.20;100.00
64141;BME280;50436;50.618;7.932;2024-01-07T00:51:38;96158.03;;;1.15;100.00
64141;BME280;50436;50.618;7.932;2024-01-07T00:54:24;96161.94;;;1.19;100.00
64141;BME280;50436;50.618;7.932;2024-01-07T00:57:10;96160.47;;;1.17;100.00
64141;BME280;50436;50.618;7.932;2024-01-07T01:00:04;96156.66;;;1.19;100.00
64141;BME280;50436;50.618;7.932;2024-01-07T01:02:50;96158.69;;;1.17;100.00
64141;BME280;50436;50.618;7.932;2024-01-07T01:05:36;96157.03;;;1.16;100.00
64141;BME280;50436;50.618;7.932;2024-01-07T01:08:22;96155.03;;;1.18;100.00
64141;BME280;50436;50.618;7.932;2024-01-07T01:11:09;96165.94;;;1.15;100.00
64141;BME280;50436;50.618;7.932;2024-01-07T01:13:55;96166.97;;;1.14;100.00
64141;BME280;50436;50.618;7.932;2024-01-07T01:16:42;96171.44;;;1.14;100.00
64141;BME280;50436;50.618;7.932;2024-01-07T01:19:28;96173.28;;;1.20;100.00
64141;BME280;50436;50.618;7.932;2024-01-07T01:22:14;96171.88;;;1.24;100.00
64141;BME280;50436;50.618;7.932;2024-01-07T01:25:00;96177.75;;;1.19;100.00
64141;BME280;50436;50.618;7.932;2024-01-07T01:27:46;96188.91;;;1.21;100.00
64141;BME280;50436;50.618;7.932;2024-01-07T01:30:33;96185.84;;;1.18;100.00
64141;BME280;50436;50.618;7.932;2024-01-07T01:33:19;96182.13;;;1.05;100.00
64141;BME280;50436;50.618;7.932;2024-01-07T01:36:05;96194.91;;;1.08;100.00
64141;BME280;50436;50.618;7.932;2024-01-07T01:38:51;96196.56;;;1.09;100.00
64141;BME280;50436;50.618;7.932;2024-01-07T01:41:38;96194.28;;;1.06;100.00
64141;BME280;50436;50.618;7.932;2024-01-07T01:44:24;96205.66;;;1.07;100.00
64141;BME280;50436;50.618;7.932;2024-01-07T01:47:13;96208.25;;;1.00;100.00
64141;BME280;50436;50.618;7.932;2024-01-07T01:49:59;96203.22;;;1.05;100.00
64141;BME280;50436;50.618;7.932;2024-01-07T01:52:45;96211.78;;;1.14;100.00
64141;BME280;50436;50.618;7.932;2024-01-07T01:55:31;96208.31;;;1.14;100.00
64141;BME280;50436;50.618;7.932;2024-01-07T01:58:19;96205.69;;;1.14;100.00
64141;BME280;50436;50.618;7.932;2024-01-07T02:01:05;96204.25;;;1.11;100.00
64141;BME280;50436;50.618;7.932;2024-01-07T02:03:51;96202.03;;;1.15;100.00
64141;BME280;50436;50.618;7.932;2024-01-07T02:06:40;96210.97;;;1.14;100.00
64141;BME280;50436;50.618;7.932;2024-01-07T02:09:26;96219.50;;;1.22;100.00
64141;BME280;50436;50.618;7.932;2024-01-07T02:12:12;96218.91;;;1.20;100.00
64141;BME280;50436;50.618;7.932;2024-01-07T02:14:58;96213.19;;;1.17;100.00
64141;BME280;50436;50.618;7.932;2024-01-07T02:17:46;96220.75;;;1.26;100.00
64141;BME280;50436;50.618;7.932;2024-01-07T02:20:32;96214.69;;;1.26;100.00
64141;BME280;50436;50.618;7.932;2024-01-07T02:23:18;96212.22;;;1.24;100.00
64141;BME280;50436;50.618;7.932;2024-01-07T02:26:04;96214.84;;;1.24;100.00
64141;BME280;50436;50.618;7.932;2024-01-07T02:28:50;96214.25;;;1.22;100.00
64141;BME280;50436;50.618;7.932;2024-01-07T02:31:36;96221.53;;;1.20;100.00
64141;BME280;50436;50.618;7.932;2024-01-07T02:34:22;96215.25;;;1.21;100.00
64141;BME280;50436;50.618;7.932;2024-01-07T02:37:08;96224.38;;;1.19;100.00
64141;BME280;50436;50.618;7.932;2024-01-07T02:39:54;96220.94;;;1.18;100.00
64141;BME280;50436;50.618;7.932;2024-01-07T02:42:39;96213.78;;;1.12;100.00
64141;BME280;50436;50.618;7.932;2024-01-07T02:45:25;96222.13;;;1.16;100.00
64141;BME280;50436;50.618;7.932;2024-01-07T02:48:11;96226.81;;;1.20;100.00
64141;BME280;50436;50.618;7.932;2024-01-07T02:50:57;96220.94;;;1.18;100.00
64141;BME280;50436;50.618;7.932;2024-01-07T02:53:43;96229.59;;;1.12;100.00
64141;BME280;50436;50.618;7.932;2024-01-07T02:56:29;96220.50;;;1.15;100.00
64141;BME280;50436;50.618;7.932;2024-01-07T02:59:15;96225.09;;;1.06;100.00
64141;BME280;50436;50.618;7.932;2024-01-07T03:02:00;96218.00;;;1.06;100.00
64141;BME280;50436;50.618;7.932;2024-01-07T03:04:46;96219.03;;;1.05;100.00
64141;BME280;50436;50.618;7.932;2024-01-07T03:07:32;96232.66;;;1.09;100.00
64141;BME280;50436;50.618;7.932;2024-01-07T03:10:18;96227.69;;;0.99;100.00
64141;BME280;50436;50.618;7.932;2024-01-07T03:13:04;96229.72;;;0.63;100.00
64141;BME280;50436;50.618;7.932;2024-01-07T03:15:50;96225.06;;;0.65;100.00
64141;BME280;50436;50.618;7.932;2024-01-07T03:18:36;96225.78;;;0.80;100.00
64141;BME280;50436;50.618;7.932;2024-01-07T03:21:23;96233.63;;;0.73;100.00
64141;BME280;50436;50.618;7.932;2024-01-07T03:24:10;96232.25;;;0.84;100.00
64141;BME280;50436;50.618;7.932;2024-01-07T03:26:56;96231.47;;;0.83;100.00
64141;BME280;50436;50.618;7.932;2024-01-07T03:29:42;96232.25;;;0.84;100.00
64141;BME280;50436;50.618;7.932;2024-01-07T03:32:28;96231.50;;;0.90;100.00
64141;BME280;50436;50.618;7.932;2024-01-07T03:35:14;96231.31;;;0.92;100.00
64141;BME280;50436;50.618;7.932;2024-01-07T03:38:00;96245.97;;;0.73;100.00
64141;BME280;50436;50.618;7.932;2024-01-07T03:40:46;96240.75;;;0.79;100.00
64141;BME280;50436;50.618;7.932;2024-01-07T03:43:33;96235.09;;;0.82;100.00
64141;BME280;50436;50.618;7.932;2024-01-07T03:46:19;96233.09;;;0.84;100.00
64141;BME280;50436;50.618;7.932;2024-01-07T03:49:04;96232.72;;;0.88;100.00
64141;BME280;50436;50.618;7.932;2024-01-07T03:51:50;96236.56;;;0.92;100.00
64141;BME280;50436;50.618;7.932;2024-01-07T03:54:36;96244.72;;;0.97;100.00
64141;BME280;50436;50.618;7.932;2024-01-07T03:57:22;96239.34;;;0.83;100.00
64141;BME280;50436;50.618;7.932;2024-01-07T04:00:08;96245.50;;;0.91;100.00
64141;BME280;50436;50.618;7.932;2024-01-07T04:02:55;96247.31;;;0.90;100.00
64141;BME280;50436;50.618;7.932;2024-01-07T04:05:41;96241.84;;;0.92;100.00
64141;BME280;50436;50.618;7.932;2024-01-07T04:08:27;96245.94;;;1.01;100.00
64141;BME280;50436;50.618;7.932;2024-01-07T04:11:14;96248.41;;;1.02;100.00
64141;BME280;50436;50.618;7.932;2024-01-07T04:14:00;96255.06;;;0.98;100.00
64141;BME280;50436;50.618;7.932;2024-01-07T04:16:45;96255.69;;;1.00;100.00
64141;BME280;50436;50.618;7.932;2024-01-07T04:19:31;96261.44;;;1.10;100.00
64141;BME280;50436;50.618;7.932;2024-01-07T04:22:17;96263.69;;;1.14;100.00
64141;BME280;50436;50.618;7.932;2024-01-07T04:25:04;96263.69;;;1.14;100.00
64141;BME280;50436;50.618;7.932;2024-01-07T04:27:50;96262.41;;;1.03;100.00
64141;BME280;50436;50.618;7.932;2024-01-07T04:30:36;96272.13;;;1.02;100.00
64141;BME280;50436;50.618;7.932;2024-01-07T04:33:22;96274.56;;;1.04;100.00
64141;BME280;50436;50.618;7.932;2024-01-07T04:36:08;96265.81;;;0.97;100.00
64141;BME280;50436;50.618;7.932;2024-01-07T04:38:55;96278.06;;;1.11;100.00
64141;BME280;50436;50.618;7.932;2024-01-07T04:41:41;96270.38;;;1.16;100.00
64141;BME280;50436;50.618;7.932;2024-01-07T04:44:27;96275.19;;;1.06;100.00
64141;BME280;50436;50.618;7.932;2024-01-07T04:47:29;96274.13;;;1.00;100.00
64141;BME280;50436;50.618;7.932;2024-01-07T04:50:16;96278.41;;;1.01;100.00
64141;BME280;50436;50.618;7.932;2024-01-07T04:53:05;96276.81;;;1.07;100.00
64141;BME280;50436;50.618;7.932;2024-01-07T04:55:51;96283.09;;;1.06;100.00
64141;BME280;50436;50.618;7.932;2024-01-07T04:58:37;96289.41;;;1.11;100.00
64141;BME280;50436;50.618;7.932;2024-01-07T05:01:23;96285.38;;;1.16;100.00
64141;BME280;50436;50.618;7.932;2024-01-07T05:04:09;96294.72;;;1.18;100.00
64141;BME280;50436;50.618;7.932;2024-01-07T05:06:54;96293.28;;;1.16;100.00
64141;BME280;50436;50.618;7.932;2024-01-07T05:09:40;96298.13;;;1.12;100.00
64141;BME280;50436;50.618;7.932;2024-01-07T05:12:26;96307.47;;;1.15;100.00
64141;BME280;50436;50.618;7.932;2024-01-07T05:15:12;96300.97;;;1.10;100.00
64141;BME280;50436;50.618;7.932;2024-01-07T05:17:58;96314.75;;;1.13;100.00
64141;BME280;50436;50.618;7.932;2024-01-07T05:20:44;96309.69;;;1.11;100.00
64141;BME280;50436;50.618;7.932;2024-01-07T05:23:30;96311.13;;;1.14;100.00
64141;BME280;50436;50.618;7.932;2024-01-07T05:26:16;96318.66;;;0.89;100.00
64141;BME280;50436;50.618;7.932;2024-01-07T05:29:02;96323.69;;;0.62;100.00
64141;BME280;50436;50.618;7.932;2024-01-07T05:31:48;96325.88;;;0.59;100.00
64141;BME280;50436;50.618;7.932;2024-01-07T05:34:34;96322.63;;;0.78;100.00
64141;BME280;50436;50.618;7.932;2024-01-07T05:37:20;96316.03;;;0.67;100.00
64141;BME280;50436;50.618;7.932;2024-01-07T05:40:06;96320.28;;;0.90;100.00
64141;BME280;50436;50.618;7.932;2024-01-07T05:42:52;96323.97;;;0.95;100.00
64141;BME280;50436;50.618;7.932;2024-01-07T05:45:38;96329.94;;;0.82;100.00
64141;BME280;50436;50.618;7.932;2024-01-07T05:48:24;96334.47;;;0.67;100.00
64141;BME280;50436;50.618;7.932;2024-01-07T05:51:10;96330.53;;;0.78;100.00
64141;BME280;50436;50.618;7.932;2024-01-07T05:53:56;96332.69;;;0.96;100.00
64141;BME280;50436;50.618;7.932;2024-01-07T05:56:43;96342.84;;;0.99;100.00
64141;BME280;50436;50.618;7.932;2024-01-07T05:59:29;96348.31;;;0.76;100.00
64141;BME280;50436;50.618;7.932;2024-01-07T06:02:14;96348.56;;;0.81;100.00
64141;BME280;50436;50.618;7.932;2024-01-07T06:05:02;96357.28;;;0.81;100.00
64141;BME280;50436;50.618;7.932;2024-01-07T06:07:48;96353.78;;;0.96;100.00
64141;BME280;50436;50.618;7.932;2024-01-07T06:10:34;96358.91;;;1.04;100.00
64141;BME280;50436;50.618;7.932;2024-01-07T06:13:20;96357.75;;;1.13;100.00
64141;BME280;50436;50.618;7.932;2024-01-07T06:16:06;96372.81;;;1.19;100.00
64141;BME280;50436;50.618;7.932;2024-01-07T06:18:52;96363.13;;;1.26;100.00
64141;BME280;50436;50.618;7.932;2024-01-07T06:21:38;96379.75;;;1.27;100.00
64141;BME280;50436;50.618;7.932;2024-01-07T06:24:24;96375.34;;;1.34;100.00
64141;BME280;50436;50.618;7.932;2024-01-07T06:27:09;96372.94;;;1.11;100.00
64141;BME280;50436;50.618;7.932;2024-01-07T06:29:55;96383.28;;;1.13;100.00
64141;BME280;50436;50.618;7.932;2024-01-07T06:32:41;96385.25;;;1.04;100.00
64141;BME280;50436;50.618;7.932;2024-01-07T06:35:27;96408.34;;;1.02;100.00
64141;BME280;50436;50.618;7.932;2024-01-07T06:38:13;96399.38;;;0.96;100.00
64141;BME280;50436;50.618;7.932;2024-01-07T06:41:00;96398.56;;;0.74;100.00
64141;BME280;50436;50.618;7.932;2024-01-07T06:43:49;96406.97;;;0.84;100.00
64141;BME280;50436;50.618;7.932;2024-01-07T06:46:38;96405.72;;;0.80;100.00
64141;BME280;50436;50.618;7.932;2024-01-07T06:49:23;96408.09;;;0.75;100.00
64141;BME280;50436;50.618;7.932;2024-01-07T06:52:09;96414.03;;;0.84;100.00
64141;BME280;50436;50.618;7.932;2024-01-07T06:54:55;96422.50;;;1.01;100.00
64141;BME280;50436;50.618;7.932;2024-01-07T06:57:41;96424.28;;;0.72;100.00
64141;BME280;50436;50.618;7.932;2024-01-07T07:00:29;96432.31;;;0.64;100.00
64141;BME280;50436;50.618;7.932;2024-01-07T07:03:14;96429.28;;;0.67;100.00
64141;BME280;50436;50.618;7.932;2024-01-07T07:06:00;96433.47;;;0.62;100.00
64141;BME280;50436;50.618;7.932;2024-01-07T07:08:46;96440.59;;;0.46;100.00
64141;BME280;50436;50.618;7.932;2024-01-07T07:11:32;96447.69;;;0.46;100.00
64141;BME280;50436;50.618;7.932;2024-01-07T07:14:18;96445.59;;;0.56;100.00
64141;BME280;50436;50.618;7.932;2024-01-07T07:17:04;96457.00;;;0.63;100.00
64141;BME280;50436;50.618;7.932;2024-01-07T07:19:50;96467.25;;;0.73;100.00
64141;BME280;50436;50.618;7.932;2024-01-07T07:22:36;96466.44;;;0.72;100.00
64141;BME280;50436;50.618;7.932;2024-01-07T07:25:22;96467.28;;;0.58;100.00
64141;BME280;50436;50.618;7.932;2024-01-07T07:28:07;96452.84;;;0.54;100.00
64141;BME280;50436;50.618;7.932;2024-01-07T07:30:53;96466.84;;;0.54;100.00
64141;BME280;50436;50.618;7.932;2024-01-07T07:33:40;96476.72;;;0.52;100.00
64141;BME280;50436;50.618;7.932;2024-01-07T07:36:25;96482.06;;;0.59;100.00
64141;BME280;50436;50.618;7.932;2024-01-07T07:39:11;96481.06;;;0.60;100.00
64141;BME280;50436;50.618;7.932;2024-01-07T07:41:59;96483.97;;;0.65;100.00
64141;BME280;50436;50.618;7.932;2024-01-07T07:44:46;96476.63;;;0.61;100.00
64141;BME280;50436;50.618;7.932;2024-01-07T07:47:33;96482.19;;;0.51;100.00
64141;BME280;50436;50.618;7.932;2024-01-07T07:50:19;96487.84;;;0.48;100.00
64141;BME280;50436;50.618;7.932;2024-01-07T07:53:05;96488.38;;;0.43;100.00
64141;BME280;50436;50.618;7.932;2024-01-07T07:55:51;96498.00;;;0.36;100.00
64141;BME280;50436;50.618;7.932;2024-01-07T07:58:37;96503.47;;;0.35;100.00
64141;BME280;50436;50.618;7.932;2024-01-07T08:01:24;96508.91;;;0.33;100.00
64141;BME280;50436;50.618;7.932;2024-01-07T08:04:10;96500.63;;;0.36;100.00
64141;BME280;50436;50.618;7.932;2024-01-07T08:06:56;96519.63;;;0.32;100.00
64141;BME280;50436;50.618;7.932;2024-01-07T08:09:42;96514.28;;;0.25;100.00
64141;BME280;50436;50.618;7.932;2024-01-07T08:12:28;96517.00;;;0.32;100.00
64141;BME280;50436;50.618;7.932;2024-01-07T08:15:14;96526.69;;;0.31;100.00
64141;BME280;50436;50.618;7.932;2024-01-07T08:18:01;96525.88;;;0.31;100.00
64141;BME280;50436;50.618;7.932;2024-01-07T08:20:48;96527.16;;;0.20;100.00
64141;BME280;50436;50.618;7.932;2024-01-07T08:23:33;96532.69;;;0.10;100.00
64141;BME280;50436;50.618;7.932;2024-01-07T08:26:20;96536.59;;;0.14;100.00
64141;BME280;50436;50.618;7.932;2024-01-07T08:29:06;96544.22;;;0.24;100.00
64141;BME280;50436;50.618;7.932;2024-01-07T08:31:52;96547.94;;;0.30;100.00
64141;BME280;50436;50.618;7.932;2024-01-07T08:34:38;96546.94;;;0.31;100.00
64141;BME280;50436;50.618;7.932;2024-01-07T08:37:25;96547.22;;;0.36;100.00
64141;BME280;50436;50.618;7.932;2024-01-07T08:40:12;96549.66;;;0.52;100.00
64141;BME280;50436;50.618;7.932;2024-01-07T08:42:59;96551.94;;;0.40;100.00
64141;BME280;50436;50.618;7.932;2024-01-07T08:45:45;96554.09;;;0.37;100.00
64141;BME280;50436;50.618;7.932;2024-01-07T08:48:30;96559.13;;;0.32;100.00
64141;BME280;50436;50.618;7.932;2024-01-07T08:51:16;96558.94;;;0.33;100.00
64141;BME280;50436;50.618;7.932;2024-01-07T08:54:02;96568.66;;;0.47;100.00
64141;BME280;50436;50.618;7.932;2024-01-07T08:56:48;96575.25;;;0.43;100.00
64141;BME280;50436;50.618;7.932;2024-01-07T08:59:35;96573.16;;;0.53;100.00
64141;BME280;50436;50.618;7.932;2024-01-07T09:02:21;96575.44;;;0.42;100.00
64141;BME280;50436;50.618;7.932;2024-01-07T09:05:07;96581.97;;;0.46;100.00
64141;BME280;50436;50.618;7.932;2024-01-07T09:07:53;96574.34;;;0.36;100.00
64141;BME280;50436;50.618;7.932;2024-01-07T09:10:39;96574.16;;;0.38;100.00
64141;BME280;50436;50.618;7.932;2024-01-07T09:13:24;96583.53;;;0.55;100.00
64141;BME280;50436;50.618;7.932;2024-01-07T09:16:10;96586.25;;;0.32;100.00
64141;BME280;50436;50.618;7.932;2024-01-07T09:18:57;96593.97;;;0.34;100.00
64141;BME280;50436;50.618;7.932;2024-01-07T09:21:43;96593.59;;;0.37;100.00
64141;BME280;50436;50.618;7.932;2024-01-07T09:24:29;96604.69;;;0.47;100.00
64141;BME280;50436;50.618;7.932;2024-01-07T09:27:16;96614.94;;;0.57;100.00
64141;BME280;50436;50.618;7.932;2024-01-07T09:30:02;96612.94;;;0.59;100.00
64141;BME280;50436;50.618;7.932;2024-01-07T09:32:48;96624.28;;;0.44;100.00
64141;BME280;50436;50.618;7.932;2024-01-07T09:35:34;96630.16;;;0.17;100.00
64141;BME280;50436;50.618;7.932;2024-01-07T09:38:20;96623.75;;;-0.04;100.00
64141;BME280;50436;50.618;7.932;2024-01-07T09:41:06;96633.31;;;0.12;100.00
64141;BME280;50436;50.618;7.932;2024-01-07T09:43:52;96627.56;;;0.32;100.00
64141;BME280;50436;50.618;7.932;2024-01-07T09:46:39;96637.00;;;0.26;100.00
64141;BME280;50436;50.618;7.932;2024-01-07T09:49:27;96637.78;;;0.12;100.00
64141;BME280;50436;50.618;7.932;2024-01-07T09:52:13;96634.88;;;0.21;100.00
64141;BME280;50436;50.618;7.932;2024-01-07T09:55:02;96634.56;;;0.39;100.00
64141;BME280;50436;50.618;7.932;2024-01-07T09:57:49;96644.09;;;0.55;100.00
64141;BME280;50436;50.618;7.932;2024-01-07T10:00:36;96650.81;;;0.43;100.00
64141;BME280;50436;50.618;7.932;2024-01-07T10:03:22;96639.44;;;0.42;100.00
64141;BME280;50436;50.618;7.932;2024-01-07T10:06:08;96648.38;;;0.56;100.00
64141;BME280;50436;50.618;7.932;2024-01-07T10:08:54;96633.91;;;0.52;100.00
64141;BME280;50436;50.618;7.932;2024-01-07T10:11:40;96638.47;;;0.58;100.00
64141;BME280;50436;50.618;7.932;2024-01-07T10:14:26;96644.72;;;0.87;100.00
64141;BME280;50436;50.618;7.932;2024-01-07T10:17:14;96639.72;;;0.62;100.00
64141;BME280;50436;50.618;7.932;2024-01-07T10:20:04;96649.53;;;0.68;100.00
64141;BME280;50436;50.618;7.932;2024-01-07T10:22:51;96657.81;;;0.65;100.00
64141;BME280;50436;50.618;7.932;2024-01-07T10:25:38;96663.38;;;0.70;100.00
64141;BME280;50436;50.618;7.932;2024-01-07T10:28:24;96655.63;;;0.39;100.00
64141;BME280;50436;50.618;7.932;2024-01-07T10:31:09;96657.72;;;0.06;100.00
64141;BME280;50436;50.618;7.932;2024-01-07T10:33:56;96651.13;;;0.10;100.00
64141;BME280;50436;50.618;7.932;2024-01-07T10:36:44;96654.16;;;-0.01;100.00
64141;BME280;50436;50.618;7.932;2024-01-07T10:39:30;96658.56;;;-0.16;100.00
64141;BME280;50436;50.618;7.932;2024-01-07T10:42:18;96659.06;;;0.02;100.00
64141;BME280;50436;50.618;7.932;2024-01-07T10:45:04;96661.53;;;0.04;100.00
64141;BME280;50436;50.618;7.932;2024-01-07T10:47:55;96659.22;;;-0.14;100.00
64141;BME280;50436;50.618;7.932;2024-01-07T10:50:45;96667.56;;;-0.11;100.00
64141;BME280;50436;50.618;7.932;2024-01-07T10:53:37;96660.47;;;0.13;100.00
64141;BME280;50436;50.618;7.932;2024-01-07T10:56:32;96659.94;;;0.17;100.00
64141;BME280;50436;50.618;7.932;2024-01-07T10:59:19;96664.59;;;0.45;100.00
64141;BME280;50436;50.618;7.932;2024-01-07T11:02:06;96667.16;;;0.53;100.00
64141;BME280;50436;50.618;7.932;2024-01-07T11:08:33;96666.66;;;0.20;100.00
64141;BME280;50436;50.618;7.932;2024-01-07T11:11:32;96664.84;;;0.20;100.00
64141;BME280;50436;50.618;7.932;2024-01-07T11:14:41;96664.84;;;0.20;100.00
64141;BME280;50436;50.618;7.932;2024-01-07T11:20:23;96661.63;;;0.10;100.00
64141;BME280;50436;50.618;7.932;2024-01-07T11:23:28;96666.53;;;0.13;100.00
64141;BME280;50436;50.618;7.932;2024-01-07T11:26:19;96675.84;;;0.39;100.00
64141;BME280;50436;50.618;7.932;2024-01-07T11:29:08;96679.50;;;0.52;100.00
64141;BME280;50436;50.618;7.932;2024-01-07T11:31:54;96668.69;;;0.62;100.00
64141;BME280;50436;50.618;7.932;2024-01-07T11:34:43;96669.97;;;0.81;100.00
64141;BME280;50436;50.618;7.932;2024-01-07T11:37:32;96673.81;;;0.64;100.00
64141;BME280;50436;50.618;7.932;2024-01-07T11:40:17;96684.03;;;0.44;100.00
64141;BME280;50436;50.618;7.932;2024-01-07T11:43:04;96681.09;;;0.24;100.00
64141;BME280;50436;50.618;7.932;2024-01-07T11:45:50;96683.75;;;0.39;100.00
64141;BME280;50436;50.618;7.932;2024-01-07T11:48:37;96683.41;;;0.57;100.00
64141;BME280;50436;50.618;7.932;2024-01-07T11:51:24;96684.41;;;0.55;100.00
64141;BME280;50436;50.618;7.932;2024-01-07T11:54:10;96693.75;;;0.43;100.00
64141;BME280;50436;50.618;7.932;2024-01-07T11:56:56;96694.00;;;0.34;100.00
64141;BME280;50436;50.618;7.932;2024-01-07T11:59:42;96686.13;;;0.48;100.00
64141;BME280;50436;50.618;7.932;2024-01-07T12:02:28;96687.38;;;0.38;100.00
64141;BME280;50436;50.618;7.932;2024-01-07T12:05:16;96694.72;;;0.27;100.00
64141;BME280;50436;50.618;7.932;2024-01-07T12:08:02;96681.72;;;0.26;100.00
64141;BME280;50436;50.618;7.932;2024-01-07T12:10:49;96684.84;;;0.44;100.00
64141;BME280;50436;50.618;7.932;2024-01-07T12:13:35;96690.97;;;0.22;100.00
64141;BME280;50436;50.618;7.932;2024-01-07T12:16:22;96681.84;;;0.33;100.00
64141;BME280;50436;50.618;7.932;2024-01-07T12:19:08;96689.03;;;0.01;100.00
64141;BME280;50436;50.618;7.932;2024-01-07T12:22:06;96687.72;;;-0.03;100.00
64141;BME280;50436;50.618;7.932;2024-01-07T12:25:05;96692.34;;;-0.05;100.00
64141;BME280;50436;50.618;7.932;2024-01-07T12:27:52;96689.53;;;-0.04;100.00
64141;BME280;50436;50.618;7.932;2024-01-07T12:30:38;96694.22;;;-0.37;100.00
64141;BME280;50436;50.618;7.932;2024-01-07T12:33:25;96700.13;;;-0.35;100.00
64141;BME280;50436;50.618;7.932;2024-01-07T12:36:11;96697.59;;;-0.28;100.00
64141;BME280;50436;50.618;7.932;2024-01-07T12:38:57;96698.63;;;-0.06;100.00
64141;BME280;50436;50.618;7.932;2024-01-07T12:41:43;96693.56;;;0.07;100.00
64141;BME280;50436;50.618;7.932;2024-01-07T12:44:29;96703.28;;;-0.16;100.00
64141;BME280;50436;50.618;7.932;2024-01-07T12:47:16;96702.56;;;0.13;100.00
64141;BME280;50436;50.618;7.932;2024-01-07T12:50:02;96705.56;;;-0.36;100.00
64141;BME280;50436;50.618;7.932;2024-01-07T12:52:48;96714.84;;;-0.25;100.00
64141;BME280;50436;50.618;7.932;2024-01-07T12:55:33;96719.34;;;-0.11;100.00
64141;BME280;50436;50.618;7.932;2024-01-07T12:58:19;96713.22;;;-0.04;100.00
64141;BME280;50436;50.618;7.932;2024-01-07T13:01:06;96714.72;;;-0.32;100.00
64141;BME280;50436;50.618;7.932;2024-01-07T13:03:52;96729.09;;;-0.43;100.00
64141;BME280;50436;50.618;7.932;2024-01-07T13:06:38;96732.66;;;-0.36;100.00
64141;BME280;50436;50.618;7.932;2024-01-07T13:09:24;96729.84;;;-0.34;100.00
64141;BME280;50436;50.618;7.932;2024-01-07T13:12:11;96743.56;;;-0.47;100.00
64141;BME280;50436;50.618;7.932;2024-01-07T13:14:57;96738.41;;;-0.71;100.00
64141;BME280;50436;50.618;7.932;2024-01-07T13:17:43;96750.59;;;-0.78;100.00
64141;BME280;50436;50.618;7.932;2024-01-07T13:20:28;96747.34;;;-0.49;100.00
64141;BME280;50436;50.618;7.932;2024-01-07T13:23:14;96738.19;;;-0.93;100.00
64141;BME280;50436;50.618;7.932;2024-01-07T13:26:00;96745.63;;;-1.04;100.00
64141;BME280;50436;50.618;7.932;2024-01-07T13:28:51;96749.34;;;-0.91;100.00
64141;BME280;50436;50.618;7.932;2024-01-07T13:31:37;96750.72;;;-1.11;100.00
64141;BME280;50436;50.618;7.932;2024-01-07T13:34:23;96765.16;;;-1.07;100.00
64141;BME280;50436;50.618;7.932;2024-01-07T13:37:09;96765.63;;;-1.03;100.00
64141;BME280;50436;50.618;7.932;2024-01-07T13:39:55;96772.34;;;-0.93;100.00
64141;BME280;50436;50.618;7.932;2024-01-07T13:42:40;96766.69;;;-1.37;100.00
64141;BME280;50436;50.618;7.932;2024-01-07T13:45:26;96779.69;;;-1.60;100.00
64141;BME280;50436;50.618;7.932;2024-01-07T13:48:12;96780.31;;;-1.42;100.00
64141;BME280;50436;50.618;7.932;2024-01-07T13:50:58;96788.19;;;-1.50;100.00
64141;BME280;50436;50.618;7.932;2024-01-07T13:53:44;96781.31;;;-1.83;100.00
64141;BME280;50436;50.618;7.932;2024-01-07T13:56:31;96791.63;;;-1.74;100.00
64141;BME280;50436;50.618;7.932;2024-01-07T13:59:17;96799.69;;;-1.51;100.00
64141;BME280;50436;50.618;7.932;2024-01-07T14:02:06;96803.94;;;-1.58;100.00
64141;BME280;50436;50.618;7.932;2024-01-07T14:04:52;96799.69;;;-1.59;100.00
64141;BME280;50436;50.618;7.932;2024-01-07T14:07:38;96809.84;;;-1.64;100.00
64141;BME280;50436;50.618;7.932;2024-01-07T14:10:24;96821.31;;;-1.49;100.00
64141;BME280;50436;50.618;7.932;2024-01-07T14:13:10;96819.69;;;-1.50;100.00
64141;BME280;50436;50.618;7.932;2024-01-07T14:15:56;96822.47;;;-1.35;100.00
64141;BME280;50436;50.618;7.932;2024-01-07T14:18:41;96833.47;;;-1.64;100.00
64141;BME280;50436;50.618;7.932;2024-01-07T14:21:27;96830.53;;;-1.77;100.00
64141;BME280;50436;50.618;7.932;2024-01-07T14:24:15;96848.53;;;-1.82;100.00
64141;BME280;50436;50.618;7.932;2024-01-07T14:27:01;96838.81;;;-2.06;100.00
64141;BME280;50436;50.618;7.932;2024-01-07T14:29:46;96856.22;;;-1.97;100.00
64141;BME280;50436;50.618;7.932;2024-01-07T14:32:33;96855.81;;;-2.18;100.00
64141;BME280;50436;50.618;7.932;2024-01-07T14:35:19;96859.97;;;-2.00;100.00
64141;BME280;50436;50.618;7.932;2024-01-07T14:38:05;96862.31;;;-1.80;100.00
64141;BME280;50436;50.618;7.932;2024-01-07T14:40:53;96859.00;;;-1.99;100.00
64141;BME280;50436;50.618;7.932;2024-01-07T14:43:40;96874.31;;;-2.28;100.00
64141;BME280;50436;50.618;7.932;2024-01-07T14:46:26;96871.53;;;-2.61;100.00